sensor_id;sensor_type;location;lat;lon;timestamp;P1;durP1;ratioP1;P2;durP2;ratioP2
5121;SDS011;2563;52.242;7.956;2022-09-03T00:02:32;6.40;;;1.63;;
5121;SDS011;2563;52.242;7.956;2022-09-03T00:07:43;1.40;;;1.10;;
5121;SDS011;2563;52.242;7.956;2022-09-03T00:10:24;4.67;;;1.20;;
5121;SDS011;2563;52.242;7.956;2022-09-03T00:12:55;4.40;;;1.13;;
5121;SDS011;2563;52.242;7.956;2022-09-03T00:15:24;1.97;;;1.20;;
5121;SDS011;2563;52.242;7.956;2022-09-03T00:17:57;4.03;;;1.00;;
5121;SDS011;2563;52.242;7.956;2022-09-03T00:20:41;2.20;;;1.40;;
5121;SDS011;2563;52.242;7.956;2022-09-03T00:23:15;4.00;;;0.93;;
5121;SDS011;2563;52.242;7.956;2022-09-03T00:25:57;2.73;;;1.40;;
5121;SDS011;2563;52.242;7.956;2022-09-03T00:29:30;4.20;;;1.43;;
5121;SDS011;2563;52.242;7.956;2022-09-03T00:31:38;3.83;;;1.30;;
5121;SDS011;2563;52.242;7.956;2022-09-03T00:34:09;5.30;;;1.40;;
5121;SDS011;2563;52.242;7.956;2022-09-03T00:36:43;4.43;;;1.37;;
5121;SDS011;2563;52.242;7.956;2022-09-03T00:39:19;3.27;;;1.10;;
5121;SDS011;2563;52.242;7.956;2022-09-03T00:41:51;3.00;;;1.37;;
5121;SDS011;2563;52.242;7.956;2022-09-03T01:01:04;1.50;;;1.03;;
5121;SDS011;2563;52.242;7.956;2022-09-03T01:06:49;3.10;;;1.60;;
5121;SDS011;2563;52.242;7.956;2022-09-03T01:15:29;2.20;;;1.07;;
5121;SDS011;2563;52.242;7.956;2022-09-03T01:30:44;3.23;;;1.30;;
5121;SDS011;2563;52.242;7.956;2022-09-03T01:33:26;3.33;;;1.40;;
5121;SDS011;2563;52.242;7.956;2022-09-03T01:42:19;3.10;;;1.10;;
5121;SDS011;2563;52.242;7.956;2022-09-03T01:50:39;1.40;;;1.00;;
5121;SDS011;2563;52.242;7.956;2022-09-03T01:59:34;4.30;;;1.40;;
5121;SDS011;2563;52.242;7.956;2022-09-03T02:02:24;4.37;;;1.17;;
5121;SDS011;2563;52.242;7.956;2022-09-03T02:04:56;1.60;;;0.90;;
5121;SDS011;2563;52.242;7.956;2022-09-03T02:07:50;2.10;;;0.93;;
5121;SDS011;2563;52.242;7.956;2022-09-03T02:10:22;3.73;;;1.00;;
5121;SDS011;2563;52.242;7.956;2022-09-03T02:12:55;2.07;;;0.97;;
5121;SDS011;2563;52.242;7.956;2022-09-03T02:15:25;4.33;;;1.20;;
5121;SDS011;2563;52.242;7.956;2022-09-03T02:17:52;1.57;;;1.00;;
5121;SDS011;2563;52.242;7.956;2022-09-03T02:20:23;2.90;;;1.13;;
5121;SDS011;2563;52.242;7.956;2022-09-03T02:22:51;1.30;;;0.83;;
5121;SDS011;2563;52.242;7.956;2022-09-03T02:25:21;6.23;;;1.30;;
5121;SDS011;2563;52.242;7.956;2022-09-03T02:27:48;1.83;;;1.33;;
5121;SDS011;2563;52.242;7.956;2022-09-03T02:30:14;1.93;;;1.17;;
5121;SDS011;2563;52.242;7.956;2022-09-03T02:32:41;2.13;;;0.97;;
5121;SDS011;2563;52.242;7.956;2022-09-03T02:35:07;1.30;;;0.87;;
5121;SDS011;2563;52.242;7.956;2022-09-03T02:37:33;4.10;;;1.07;;
5121;SDS011;2563;52.242;7.956;2022-09-03T02:39:59;1.70;;;0.97;;
5121;SDS011;2563;52.242;7.956;2022-09-03T02:42:24;2.03;;;0.97;;
5121;SDS011;2563;52.242;7.956;2022-09-03T02:44:51;3.03;;;1.13;;
5121;SDS011;2563;52.242;7.956;2022-09-03T02:47:21;1.40;;;1.20;;
5121;SDS011;2563;52.242;7.956;2022-09-03T02:49:53;6.33;;;0.90;;
5121;SDS011;2563;52.242;7.956;2022-09-03T02:52:18;1.43;;;0.97;;
5121;SDS011;2563;52.242;7.956;2022-09-03T02:54:43;2.23;;;1.20;;
5121;SDS011;2563;52.242;7.956;2022-09-03T02:57:10;2.90;;;1.20;;
5121;SDS011;2563;52.242;7.956;2022-09-03T02:59:38;1.03;;;0.90;;
5121;SDS011;2563;52.242;7.956;2022-09-03T03:02:04;2.47;;;1.20;;
5121;SDS011;2563;52.242;7.956;2022-09-03T03:04:29;2.37;;;1.00;;
5121;SDS011;2563;52.242;7.956;2022-09-03T03:06:56;3.13;;;1.30;;
5121;SDS011;2563;52.242;7.956;2022-09-03T03:09:21;2.40;;;1.13;;
5121;SDS011;2563;52.242;7.956;2022-09-03T03:11:47;2.40;;;0.80;;
5121;SDS011;2563;52.242;7.956;2022-09-03T03:14:14;1.50;;;0.90;;
5121;SDS011;2563;52.242;7.956;2022-09-03T03:16:40;1.27;;;0.97;;
5121;SDS011;2563;52.242;7.956;2022-09-03T03:19:05;4.10;;;1.10;;
5121;SDS011;2563;52.242;7.956;2022-09-03T03:21:31;6.43;;;1.70;;
5121;SDS011;2563;52.242;7.956;2022-09-03T03:23:56;2.33;;;1.30;;
5121;SDS011;2563;52.242;7.956;2022-09-03T03:26:22;2.40;;;1.10;;
5121;SDS011;2563;52.242;7.956;2022-09-03T03:28:48;1.20;;;1.00;;
5121;SDS011;2563;52.242;7.956;2022-09-03T03:31:19;2.20;;;1.20;;
5121;SDS011;2563;52.242;7.956;2022-09-03T03:33:51;1.33;;;1.10;;
5121;SDS011;2563;52.242;7.956;2022-09-03T03:36:18;2.30;;;1.00;;
5121;SDS011;2563;52.242;7.956;2022-09-03T03:38:44;1.67;;;1.00;;
5121;SDS011;2563;52.242;7.956;2022-09-03T03:41:20;2.30;;;1.10;;
5121;SDS011;2563;52.242;7.956;2022-09-03T03:43:51;1.87;;;1.30;;
5121;SDS011;2563;52.242;7.956;2022-09-03T03:46:19;3.57;;;1.20;;
5121;SDS011;2563;52.242;7.956;2022-09-03T03:48:49;7.50;;;2.17;;
5121;SDS011;2563;52.242;7.956;2022-09-03T03:51:16;1.87;;;1.10;;
5121;SDS011;2563;52.242;7.956;2022-09-03T03:53:42;1.93;;;1.47;;
5121;SDS011;2563;52.242;7.956;2022-09-03T03:56:08;2.50;;;1.07;;
5121;SDS011;2563;52.242;7.956;2022-09-03T03:58:37;1.63;;;1.10;;
5121;SDS011;2563;52.242;7.956;2022-09-03T04:01:16;1.57;;;1.20;;
5121;SDS011;2563;52.242;7.956;2022-09-03T04:03:44;2.77;;;1.43;;
5121;SDS011;2563;52.242;7.956;2022-09-03T04:06:10;1.90;;;0.97;;
5121;SDS011;2563;52.242;7.956;2022-09-03T04:08:38;2.60;;;1.20;;
5121;SDS011;2563;52.242;7.956;2022-09-03T04:11:06;1.23;;;0.90;;
5121;SDS011;2563;52.242;7.956;2022-09-03T04:13:34;2.63;;;1.10;;
5121;SDS011;2563;52.242;7.956;2022-09-03T04:16:05;2.63;;;1.13;;
5121;SDS011;2563;52.242;7.956;2022-09-03T04:18:36;5.43;;;1.30;;
5121;SDS011;2563;52.242;7.956;2022-09-03T04:21:12;2.70;;;1.33;;
5121;SDS011;2563;52.242;7.956;2022-09-03T04:23:40;3.67;;;1.23;;
5121;SDS011;2563;52.242;7.956;2022-09-03T04:26:08;1.80;;;1.37;;
5121;SDS011;2563;52.242;7.956;2022-09-03T04:28:35;2.40;;;1.30;;
5121;SDS011;2563;52.242;7.956;2022-09-03T04:31:01;2.43;;;1.40;;
5121;SDS011;2563;52.242;7.956;2022-09-03T04:33:31;4.00;;;1.30;;
5121;SDS011;2563;52.242;7.956;2022-09-03T04:36:08;2.80;;;1.40;;
5121;SDS011;2563;52.242;7.956;2022-09-03T04:38:35;1.83;;;1.23;;
5121;SDS011;2563;52.242;7.956;2022-09-03T04:41:02;2.53;;;1.50;;
5121;SDS011;2563;52.242;7.956;2022-09-03T04:43:28;2.13;;;1.70;;
5121;SDS011;2563;52.242;7.956;2022-09-03T04:46:01;1.73;;;1.20;;
5121;SDS011;2563;52.242;7.956;2022-09-03T04:48:28;2.50;;;1.33;;
5121;SDS011;2563;52.242;7.956;2022-09-03T04:50:54;5.63;;;1.00;;
5121;SDS011;2563;52.242;7.956;2022-09-03T04:53:30;5.57;;;1.03;;
5121;SDS011;2563;52.242;7.956;2022-09-03T04:55:59;11.00;;;1.70;;
5121;SDS011;2563;52.242;7.956;2022-09-03T04:58:25;1.73;;;1.20;;
5121;SDS011;2563;52.242;7.956;2022-09-03T05:00:51;1.67;;;1.40;;
5121;SDS011;2563;52.242;7.956;2022-09-03T05:03:17;3.70;;;1.30;;
5121;SDS011;2563;52.242;7.956;2022-09-03T05:05:44;3.23;;;1.20;;
5121;SDS011;2563;52.242;7.956;2022-09-03T05:08:16;3.73;;;1.33;;
5121;SDS011;2563;52.242;7.956;2022-09-03T05:10:41;2.00;;;1.27;;
5121;SDS011;2563;52.242;7.956;2022-09-03T05:13:07;6.33;;;1.17;;
5121;SDS011;2563;52.242;7.956;2022-09-03T05:15:32;2.20;;;1.20;;
5121;SDS011;2563;52.242;7.956;2022-09-03T05:17:58;2.10;;;1.40;;
5121;SDS011;2563;52.242;7.956;2022-09-03T05:20:24;8.60;;;2.40;;
5121;SDS011;2563;52.242;7.956;2022-09-03T05:22:50;1.43;;;1.13;;
5121;SDS011;2563;52.242;7.956;2022-09-03T05:25:16;2.57;;;1.50;;
5121;SDS011;2563;52.242;7.956;2022-09-03T05:27:42;1.83;;;1.07;;
5121;SDS011;2563;52.242;7.956;2022-09-03T05:30:07;1.73;;;1.00;;
5121;SDS011;2563;52.242;7.956;2022-09-03T05:32:33;2.57;;;1.67;;
5121;SDS011;2563;52.242;7.956;2022-09-03T05:34:58;4.97;;;1.60;;
5121;SDS011;2563;52.242;7.956;2022-09-03T05:37:24;5.07;;;1.57;;
5121;SDS011;2563;52.242;7.956;2022-09-03T05:39:49;1.80;;;1.40;;
5121;SDS011;2563;52.242;7.956;2022-09-03T05:42:15;1.93;;;1.13;;
5121;SDS011;2563;52.242;7.956;2022-09-03T05:44:40;12.37;;;1.60;;
5121;SDS011;2563;52.242;7.956;2022-09-03T05:47:05;3.40;;;1.50;;
5121;SDS011;2563;52.242;7.956;2022-09-03T05:49:31;2.73;;;1.10;;
5121;SDS011;2563;52.242;7.956;2022-09-03T05:51:56;4.30;;;1.20;;
5121;SDS011;2563;52.242;7.956;2022-09-03T05:54:22;4.93;;;1.43;;
5121;SDS011;2563;52.242;7.956;2022-09-03T05:56:47;1.97;;;1.40;;
5121;SDS011;2563;52.242;7.956;2022-09-03T05:59:13;5.30;;;2.50;;
5121;SDS011;2563;52.242;7.956;2022-09-03T06:01:43;2.30;;;1.30;;
5121;SDS011;2563;52.242;7.956;2022-09-03T06:04:11;2.87;;;1.40;;
5121;SDS011;2563;52.242;7.956;2022-09-03T06:06:39;3.57;;;1.33;;
5121;SDS011;2563;52.242;7.956;2022-09-03T06:09:07;2.50;;;1.00;;
5121;SDS011;2563;52.242;7.956;2022-09-03T06:11:43;2.57;;;1.00;;
5121;SDS011;2563;52.242;7.956;2022-09-03T06:14:11;3.17;;;1.23;;
5121;SDS011;2563;52.242;7.956;2022-09-03T06:16:39;3.77;;;1.27;;
5121;SDS011;2563;52.242;7.956;2022-09-03T06:19:06;1.77;;;1.10;;
5121;SDS011;2563;52.242;7.956;2022-09-03T06:21:34;2.27;;;1.40;;
5121;SDS011;2563;52.242;7.956;2022-09-03T06:24:00;1.63;;;1.30;;
5121;SDS011;2563;52.242;7.956;2022-09-03T06:26:26;1.53;;;1.17;;
5121;SDS011;2563;52.242;7.956;2022-09-03T06:28:52;4.27;;;1.60;;
5121;SDS011;2563;52.242;7.956;2022-09-03T06:31:19;3.37;;;1.40;;
5121;SDS011;2563;52.242;7.956;2022-09-03T06:33:45;1.80;;;1.20;;
5121;SDS011;2563;52.242;7.956;2022-09-03T06:36:12;3.33;;;1.13;;
5121;SDS011;2563;52.242;7.956;2022-09-03T06:38:42;6.17;;;1.70;;
5121;SDS011;2563;52.242;7.956;2022-09-03T06:41:10;2.40;;;1.40;;
5121;SDS011;2563;52.242;7.956;2022-09-03T06:43:47;2.23;;;1.47;;
5121;SDS011;2563;52.242;7.956;2022-09-03T06:46:14;1.43;;;1.30;;
5121;SDS011;2563;52.242;7.956;2022-09-03T06:48:41;5.60;;;1.70;;
5121;SDS011;2563;52.242;7.956;2022-09-03T06:51:08;3.80;;;1.50;;
5121;SDS011;2563;52.242;7.956;2022-09-03T06:53:35;3.27;;;1.00;;
5121;SDS011;2563;52.242;7.956;2022-09-03T06:56:03;2.50;;;1.40;;
5121;SDS011;2563;52.242;7.956;2022-09-03T06:58:31;3.93;;;1.40;;
5121;SDS011;2563;52.242;7.956;2022-09-03T07:01:05;2.80;;;1.27;;
5121;SDS011;2563;52.242;7.956;2022-09-03T07:03:32;4.20;;;1.97;;
5121;SDS011;2563;52.242;7.956;2022-09-03T07:06:08;3.87;;;1.37;;
5121;SDS011;2563;52.242;7.956;2022-09-03T07:08:35;2.77;;;1.40;;
5121;SDS011;2563;52.242;7.956;2022-09-03T07:11:01;2.90;;;1.40;;
5121;SDS011;2563;52.242;7.956;2022-09-03T07:13:30;7.20;;;1.37;;
5121;SDS011;2563;52.242;7.956;2022-09-03T07:16:03;2.17;;;1.40;;
5121;SDS011;2563;52.242;7.956;2022-09-03T07:18:30;4.90;;;1.60;;
5121;SDS011;2563;52.242;7.956;2022-09-03T07:20:57;2.40;;;1.47;;
5121;SDS011;2563;52.242;7.956;2022-09-03T07:23:24;1.80;;;1.10;;
5121;SDS011;2563;52.242;7.956;2022-09-03T07:25:54;2.10;;;1.37;;
5121;SDS011;2563;52.242;7.956;2022-09-03T07:28:20;2.17;;;1.37;;
5121;SDS011;2563;52.242;7.956;2022-09-03T07:30:46;3.20;;;1.67;;
5121;SDS011;2563;52.242;7.956;2022-09-03T07:33:11;5.70;;;1.50;;
5121;SDS011;2563;52.242;7.956;2022-09-03T07:35:36;6.97;;;2.33;;
5121;SDS011;2563;52.242;7.956;2022-09-03T07:38:01;2.67;;;1.50;;
5121;SDS011;2563;52.242;7.956;2022-09-03T07:40:27;4.30;;;1.43;;
5121;SDS011;2563;52.242;7.956;2022-09-03T07:42:56;1.80;;;1.20;;
5121;SDS011;2563;52.242;7.956;2022-09-03T07:45:28;2.33;;;1.20;;
5121;SDS011;2563;52.242;7.956;2022-09-03T07:47:54;1.93;;;1.40;;
5121;SDS011;2563;52.242;7.956;2022-09-03T07:50:19;2.87;;;1.60;;
5121;SDS011;2563;52.242;7.956;2022-09-03T07:52:45;5.53;;;1.63;;
5121;SDS011;2563;52.242;7.956;2022-09-03T07:55:11;3.00;;;1.20;;
5121;SDS011;2563;52.242;7.956;2022-09-03T07:57:37;4.97;;;1.83;;
5121;SDS011;2563;52.242;7.956;2022-09-03T08:00:03;3.40;;;1.20;;
5121;SDS011;2563;52.242;7.956;2022-09-03T08:02:30;1.43;;;1.20;;
5121;SDS011;2563;52.242;7.956;2022-09-03T08:04:56;4.60;;;1.70;;
5121;SDS011;2563;52.242;7.956;2022-09-03T08:07:21;2.17;;;1.47;;
5121;SDS011;2563;52.242;7.956;2022-09-03T08:09:46;4.93;;;1.37;;
5121;SDS011;2563;52.242;7.956;2022-09-03T08:12:12;2.07;;;1.47;;
5121;SDS011;2563;52.242;7.956;2022-09-03T08:14:37;2.40;;;1.50;;
5121;SDS011;2563;52.242;7.956;2022-09-03T08:17:02;2.73;;;1.30;;
5121;SDS011;2563;52.242;7.956;2022-09-03T08:19:28;1.80;;;1.20;;
5121;SDS011;2563;52.242;7.956;2022-09-03T08:21:53;1.80;;;1.20;;
5121;SDS011;2563;52.242;7.956;2022-09-03T08:24:19;3.40;;;1.80;;
5121;SDS011;2563;52.242;7.956;2022-09-03T08:26:49;3.50;;;1.73;;
5121;SDS011;2563;52.242;7.956;2022-09-03T08:29:15;3.10;;;1.20;;
5121;SDS011;2563;52.242;7.956;2022-09-03T08:31:40;2.30;;;1.40;;
5121;SDS011;2563;52.242;7.956;2022-09-03T08:34:06;1.60;;;1.10;;
5121;SDS011;2563;52.242;7.956;2022-09-03T08:36:36;1.83;;;1.40;;
5121;SDS011;2563;52.242;7.956;2022-09-03T08:39:04;5.03;;;1.60;;
5121;SDS011;2563;52.242;7.956;2022-09-03T08:49:45;3.10;;;1.20;;
5121;SDS011;2563;52.242;7.956;2022-09-03T08:54:50;1.60;;;1.30;;
5121;SDS011;2563;52.242;7.956;2022-09-03T08:57:23;7.13;;;1.60;;
5121;SDS011;2563;52.242;7.956;2022-09-03T08:59:50;2.90;;;1.40;;
5121;SDS011;2563;52.242;7.956;2022-09-03T09:05:04;7.10;;;1.80;;
5121;SDS011;2563;52.242;7.956;2022-09-03T09:10:48;3.40;;;1.50;;
5121;SDS011;2563;52.242;7.956;2022-09-03T09:19:01;3.00;;;1.50;;
5121;SDS011;2563;52.242;7.956;2022-09-03T09:21:41;10.10;;;1.40;;
5121;SDS011;2563;52.242;7.956;2022-09-03T09:24:23;2.33;;;2.13;;
5121;SDS011;2563;52.242;7.956;2022-09-03T09:26:57;3.87;;;1.80;;
5121;SDS011;2563;52.242;7.956;2022-09-03T09:29:28;2.43;;;1.53;;
5121;SDS011;2563;52.242;7.956;2022-09-03T09:31:57;3.13;;;1.50;;
5121;SDS011;2563;52.242;7.956;2022-09-03T09:34:22;2.40;;;2.10;;
5121;SDS011;2563;52.242;7.956;2022-09-03T09:36:52;3.17;;;1.40;;
5121;SDS011;2563;52.242;7.956;2022-09-03T09:39:19;2.57;;;1.67;;
5121;SDS011;2563;52.242;7.956;2022-09-03T09:44:32;5.43;;;1.57;;
5121;SDS011;2563;52.242;7.956;2022-09-03T09:50:02;2.90;;;1.87;;
5121;SDS011;2563;52.242;7.956;2022-09-03T09:52:28;11.30;;;2.60;;
5121;SDS011;2563;52.242;7.956;2022-09-03T09:55:08;2.13;;;1.50;;
5121;SDS011;2563;52.242;7.956;2022-09-03T09:57:38;6.60;;;2.07;;
5121;SDS011;2563;52.242;7.956;2022-09-03T10:02:38;4.20;;;1.67;;
5121;SDS011;2563;52.242;7.956;2022-09-03T10:05:23;3.20;;;1.70;;
5121;SDS011;2563;52.242;7.956;2022-09-03T10:07:57;3.30;;;1.80;;
5121;SDS011;2563;52.242;7.956;2022-09-03T10:10:24;3.97;;;1.50;;
5121;SDS011;2563;52.242;7.956;2022-09-03T10:15:32;2.03;;;1.50;;
5121;SDS011;2563;52.242;7.956;2022-09-03T10:21:11;2.00;;;1.40;;
5121;SDS011;2563;52.242;7.956;2022-09-03T10:23:52;3.97;;;1.67;;
5121;SDS011;2563;52.242;7.956;2022-09-03T10:26:23;1.87;;;1.50;;
5121;SDS011;2563;52.242;7.956;2022-09-03T10:28:55;2.70;;;1.57;;
5121;SDS011;2563;52.242;7.956;2022-09-03T10:34:31;3.13;;;1.50;;
5121;SDS011;2563;52.242;7.956;2022-09-03T10:45:18;2.37;;;1.63;;
5121;SDS011;2563;52.242;7.956;2022-09-03T10:50:25;4.57;;;1.90;;
5121;SDS011;2563;52.242;7.956;2022-09-03T10:55:55;1.90;;;1.70;;
5121;SDS011;2563;52.242;7.956;2022-09-03T11:01:07;3.37;;;2.10;;
5121;SDS011;2563;52.242;7.956;2022-09-03T11:06:17;2.77;;;2.17;;
5121;SDS011;2563;52.242;7.956;2022-09-03T11:11:27;4.07;;;1.83;;
5121;SDS011;2563;52.242;7.956;2022-09-03T11:13:58;2.10;;;1.70;;
5121;SDS011;2563;52.242;7.956;2022-09-03T11:16:32;2.20;;;1.63;;
5121;SDS011;2563;52.242;7.956;2022-09-03T11:21:31;4.50;;;2.10;;
5121;SDS011;2563;52.242;7.956;2022-09-03T11:24:11;3.83;;;1.90;;
5121;SDS011;2563;52.242;7.956;2022-09-03T11:26:40;14.77;;;2.33;;
5121;SDS011;2563;52.242;7.956;2022-09-03T11:32:20;5.33;;;1.53;;
5121;SDS011;2563;52.242;7.956;2022-09-03T11:34:49;2.37;;;1.67;;
5121;SDS011;2563;52.242;7.956;2022-09-03T11:37:23;3.97;;;1.67;;
5121;SDS011;2563;52.242;7.956;2022-09-03T11:39:53;1.97;;;1.80;;
5121;SDS011;2563;52.242;7.956;2022-09-03T11:42:24;2.50;;;1.53;;
5121;SDS011;2563;52.242;7.956;2022-09-03T11:44:58;2.73;;;1.90;;
5121;SDS011;2563;52.242;7.956;2022-09-03T11:47:38;7.50;;;1.40;;
5121;SDS011;2563;52.242;7.956;2022-09-03T11:50:49;5.63;;;1.80;;
5121;SDS011;2563;52.242;7.956;2022-09-03T11:58:32;7.78;;;2.00;;
5121;SDS011;2563;52.242;7.956;2022-09-03T12:01:04;1.73;;;1.60;;
5121;SDS011;2563;52.242;7.956;2022-09-03T12:03:44;2.50;;;1.80;;
5121;SDS011;2563;52.242;7.956;2022-09-03T12:20:00;9.47;;;1.90;;
5121;SDS011;2563;52.242;7.956;2022-09-03T12:22:26;1.90;;;1.70;;
5121;SDS011;2563;52.242;7.956;2022-09-03T12:24:53;1.80;;;1.17;;
5121;SDS011;2563;52.242;7.956;2022-09-03T12:27:21;5.57;;;1.80;;
5121;SDS011;2563;52.242;7.956;2022-09-03T12:30:01;5.90;;;2.17;;
5121;SDS011;2563;52.242;7.956;2022-09-03T12:32:30;3.50;;;1.50;;
5121;SDS011;2563;52.242;7.956;2022-09-03T12:35:17;11.63;;;2.00;;
5121;SDS011;2563;52.242;7.956;2022-09-03T12:37:45;4.97;;;1.50;;
5121;SDS011;2563;52.242;7.956;2022-09-03T12:40:21;2.43;;;2.03;;
5121;SDS011;2563;52.242;7.956;2022-09-03T12:42:50;2.30;;;1.90;;
5121;SDS011;2563;52.242;7.956;2022-09-03T12:45:21;5.00;;;2.07;;
5121;SDS011;2563;52.242;7.956;2022-09-03T12:47:48;2.60;;;1.90;;
5121;SDS011;2563;52.242;7.956;2022-09-03T12:52:51;2.33;;;1.80;;
5121;SDS011;2563;52.242;7.956;2022-09-03T13:03:32;1.93;;;1.60;;
5121;SDS011;2563;52.242;7.956;2022-09-03T13:06:05;3.53;;;1.60;;
5121;SDS011;2563;52.242;7.956;2022-09-03T13:08:45;2.40;;;1.60;;
5121;SDS011;2563;52.242;7.956;2022-09-03T13:11:18;2.00;;;1.67;;
5121;SDS011;2563;52.242;7.956;2022-09-03T13:30:11;50.93;;;5.40;;
5121;SDS011;2563;52.242;7.956;2022-09-03T13:35:11;18.17;;;2.67;;
5121;SDS011;2563;52.242;7.956;2022-09-03T13:37:44;29.83;;;3.93;;
5121;SDS011;2563;52.242;7.956;2022-09-03T13:40:13;7.63;;;2.40;;
5121;SDS011;2563;52.242;7.956;2022-09-03T13:42:53;16.40;;;3.17;;
5121;SDS011;2563;52.242;7.956;2022-09-03T13:45:30;5.10;;;2.47;;
5121;SDS011;2563;52.242;7.956;2022-09-03T13:48:07;9.23;;;3.67;;
5121;SDS011;2563;52.242;7.956;2022-09-03T13:51:00;6.07;;;2.33;;
5121;SDS011;2563;52.242;7.956;2022-09-03T13:53:46;3.33;;;2.07;;
5121;SDS011;2563;52.242;7.956;2022-09-03T13:56:24;4.10;;;2.20;;
5121;SDS011;2563;52.242;7.956;2022-09-03T13:58:55;5.20;;;2.20;;
5121;SDS011;2563;52.242;7.956;2022-09-03T14:01:42;5.43;;;2.50;;
5121;SDS011;2563;52.242;7.956;2022-09-03T14:04:24;3.70;;;2.10;;
5121;SDS011;2563;52.242;7.956;2022-09-03T14:07:00;2.37;;;1.60;;
5121;SDS011;2563;52.242;7.956;2022-09-03T14:09:34;4.60;;;1.87;;
5121;SDS011;2563;52.242;7.956;2022-09-03T14:20:28;3.83;;;2.03;;
5121;SDS011;2563;52.242;7.956;2022-09-03T14:26:03;4.33;;;2.10;;
5121;SDS011;2563;52.242;7.956;2022-09-03T14:36:10;3.30;;;1.67;;
5121;SDS011;2563;52.242;7.956;2022-09-03T14:44:20;4.03;;;2.50;;
5121;SDS011;2563;52.242;7.956;2022-09-03T14:50:26;10.70;;;2.07;;
5121;SDS011;2563;52.242;7.956;2022-09-03T15:12:28;2.40;;;1.93;;
5121;SDS011;2563;52.242;7.956;2022-09-03T15:18:02;3.23;;;1.80;;
5121;SDS011;2563;52.242;7.956;2022-09-03T15:20:53;21.77;;;1.93;;
5121;SDS011;2563;52.242;7.956;2022-09-03T15:29:51;3.93;;;2.30;;
5121;SDS011;2563;52.242;7.956;2022-09-03T15:39:58;2.57;;;1.90;;
5121;SDS011;2563;52.242;7.956;2022-09-03T15:42:29;2.50;;;1.60;;
5121;SDS011;2563;52.242;7.956;2022-09-03T15:44:55;2.90;;;1.90;;
5121;SDS011;2563;52.242;7.956;2022-09-03T15:47:51;4.57;;;2.00;;
5121;SDS011;2563;52.242;7.956;2022-09-03T15:55:34;2.43;;;1.67;;
5121;SDS011;2563;52.242;7.956;2022-09-03T16:03:12;3.57;;;2.07;;
5121;SDS011;2563;52.242;7.956;2022-09-03T16:08:40;5.20;;;2.03;;
5121;SDS011;2563;52.242;7.956;2022-09-03T16:11:14;2.60;;;2.10;;
5121;SDS011;2563;52.242;7.956;2022-09-03T16:13:56;2.73;;;1.70;;
5121;SDS011;2563;52.242;7.956;2022-09-03T16:19:23;2.57;;;2.00;;
5121;SDS011;2563;52.242;7.956;2022-09-03T16:22:03;5.03;;;2.00;;
5121;SDS011;2563;52.242;7.956;2022-09-03T16:27:38;2.27;;;1.70;;
5121;SDS011;2563;52.242;7.956;2022-09-03T16:30:12;3.00;;;1.83;;
5121;SDS011;2563;52.242;7.956;2022-09-03T16:50:17;6.90;;;2.13;;
5121;SDS011;2563;52.242;7.956;2022-09-03T16:55:46;3.63;;;2.03;;
5121;SDS011;2563;52.242;7.956;2022-09-03T17:01:50;5.03;;;1.93;;
5121;SDS011;2563;52.242;7.956;2022-09-03T17:04:31;3.83;;;1.93;;
5121;SDS011;2563;52.242;7.956;2022-09-03T17:09:46;3.30;;;1.97;;
5121;SDS011;2563;52.242;7.956;2022-09-03T17:12:15;9.60;;;2.00;;
5121;SDS011;2563;52.242;7.956;2022-09-03T17:14:52;11.17;;;2.70;;
5121;SDS011;2563;52.242;7.956;2022-09-03T17:26:37;3.43;;;2.00;;
5121;SDS011;2563;52.242;7.956;2022-09-03T17:35:19;2.90;;;2.07;;
5121;SDS011;2563;52.242;7.956;2022-09-03T17:48:59;7.37;;;2.20;;
5121;SDS011;2563;52.242;7.956;2022-09-03T17:54:54;3.93;;;1.93;;
5121;SDS011;2563;52.242;7.956;2022-09-03T18:00:44;9.70;;;2.27;;
5121;SDS011;2563;52.242;7.956;2022-09-03T18:05:54;4.60;;;2.50;;
5121;SDS011;2563;52.242;7.956;2022-09-03T18:11:13;7.20;;;2.90;;
5121;SDS011;2563;52.242;7.956;2022-09-03T18:13:53;4.87;;;2.70;;
5121;SDS011;2563;52.242;7.956;2022-09-03T18:16:58;8.83;;;3.17;;
5121;SDS011;2563;52.242;7.956;2022-09-03T18:22:30;5.80;;;2.63;;
5121;SDS011;2563;52.242;7.956;2022-09-03T18:25:19;2.90;;;2.33;;
5121;SDS011;2563;52.242;7.956;2022-09-03T18:28:08;4.00;;;2.67;;
5121;SDS011;2563;52.242;7.956;2022-09-03T18:30:56;3.67;;;2.07;;
5121;SDS011;2563;52.242;7.956;2022-09-03T18:33:40;4.43;;;1.90;;
5121;SDS011;2563;52.242;7.956;2022-09-03T18:36:24;2.07;;;1.87;;
5121;SDS011;2563;52.242;7.956;2022-09-03T18:57:22;3.90;;;2.70;;
5121;SDS011;2563;52.242;7.956;2022-09-03T19:00:13;6.90;;;3.00;;
5121;SDS011;2563;52.242;7.956;2022-09-03T19:18:03;4.63;;;2.60;;
5121;SDS011;2563;52.242;7.956;2022-09-03T19:21:04;3.60;;;2.50;;
5121;SDS011;2563;52.242;7.956;2022-09-03T19:24:01;7.47;;;3.30;;
5121;SDS011;2563;52.242;7.956;2022-09-03T19:26:55;4.50;;;3.60;;
5121;SDS011;2563;52.242;7.956;2022-09-03T19:29:50;4.83;;;3.07;;
5121;SDS011;2563;52.242;7.956;2022-09-03T19:33:30;6.00;;;4.37;;
5121;SDS011;2563;52.242;7.956;2022-09-03T19:48:53;4.47;;;3.10;;
5121;SDS011;2563;52.242;7.956;2022-09-03T19:55:02;3.57;;;2.47;;
5121;SDS011;2563;52.242;7.956;2022-09-03T19:57:46;4.00;;;2.30;;
5121;SDS011;2563;52.242;7.956;2022-09-03T20:00:36;5.40;;;3.07;;
5121;SDS011;2563;52.242;7.956;2022-09-03T20:03:21;3.57;;;2.40;;
5121;SDS011;2563;52.242;7.956;2022-09-03T20:06:06;4.80;;;2.63;;
5121;SDS011;2563;52.242;7.956;2022-09-03T20:08:52;3.53;;;2.30;;
5121;SDS011;2563;52.242;7.956;2022-09-03T20:11:43;4.27;;;2.30;;
5121;SDS011;2563;52.242;7.956;2022-09-03T20:14:12;4.53;;;2.67;;
5121;SDS011;2563;52.242;7.956;2022-09-03T20:22:24;2.90;;;1.90;;
5121;SDS011;2563;52.242;7.956;2022-09-03T20:33:28;6.93;;;2.10;;
5121;SDS011;2563;52.242;7.956;2022-09-03T20:36:35;4.53;;;2.53;;
5121;SDS011;2563;52.242;7.956;2022-09-03T20:56:01;3.00;;;2.43;;
5121;SDS011;2563;52.242;7.956;2022-09-03T21:01:34;7.57;;;3.10;;
5121;SDS011;2563;52.242;7.956;2022-09-03T21:04:36;4.20;;;3.00;;
5121;SDS011;2563;52.242;7.956;2022-09-03T21:07:24;8.10;;;2.93;;
5121;SDS011;2563;52.242;7.956;2022-09-03T21:16:15;4.50;;;2.90;;
5121;SDS011;2563;52.242;7.956;2022-09-03T21:18:34;4.77;;;2.60;;
5121;SDS011;2563;52.242;7.956;2022-09-03T21:21:17;7.53;;;2.70;;
5121;SDS011;2563;52.242;7.956;2022-09-03T21:23:47;4.80;;;2.80;;
5121;SDS011;2563;52.242;7.956;2022-09-03T21:26:36;5.60;;;3.00;;
5121;SDS011;2563;52.242;7.956;2022-09-03T21:29:23;9.47;;;2.87;;
5121;SDS011;2563;52.242;7.956;2022-09-03T21:31:53;4.30;;;2.30;;
5121;SDS011;2563;52.242;7.956;2022-09-03T21:34:38;4.87;;;2.37;;
5121;SDS011;2563;52.242;7.956;2022-09-03T21:37:10;5.43;;;2.33;;
5121;SDS011;2563;52.242;7.956;2022-09-03T21:47:15;5.40;;;3.20;;
5121;SDS011;2563;52.242;7.956;2022-09-03T21:49:53;6.90;;;2.67;;
5121;SDS011;2563;52.242;7.956;2022-09-03T21:53:04;4.03;;;2.50;;
5121;SDS011;2563;52.242;7.956;2022-09-03T21:55:24;3.97;;;2.40;;
5121;SDS011;2563;52.242;7.956;2022-09-03T21:57:57;9.37;;;2.67;;
5121;SDS011;2563;52.242;7.956;2022-09-03T22:00:32;5.43;;;2.87;;
5121;SDS011;2563;52.242;7.956;2022-09-03T22:02:58;3.73;;;2.63;;
5121;SDS011;2563;52.242;7.956;2022-09-03T22:05:25;4.43;;;2.70;;
5121;SDS011;2563;52.242;7.956;2022-09-03T22:10:28;3.90;;;2.70;;
5121;SDS011;2563;52.242;7.956;2022-09-03T22:16:25;2.90;;;2.20;;
5121;SDS011;2563;52.242;7.956;2022-09-03T22:18:55;3.20;;;2.47;;
5121;SDS011;2563;52.242;7.956;2022-09-03T22:23:58;5.63;;;2.50;;
5121;SDS011;2563;52.242;7.956;2022-09-03T22:26:42;4.47;;;2.13;;
5121;SDS011;2563;52.242;7.956;2022-09-03T22:35:27;7.33;;;4.00;;
5121;SDS011;2563;52.242;7.956;2022-09-03T22:38:00;4.73;;;3.77;;
5121;SDS011;2563;52.242;7.956;2022-09-03T22:46:12;9.60;;;3.40;;
5121;SDS011;2563;52.242;7.956;2022-09-03T22:51:14;4.47;;;3.30;;
5121;SDS011;2563;52.242;7.956;2022-09-03T22:56:44;5.03;;;3.20;;
5121;SDS011;2563;52.242;7.956;2022-09-03T22:59:17;5.73;;;3.40;;
5121;SDS011;2563;52.242;7.956;2022-09-03T23:04:33;4.67;;;3.50;;
5121;SDS011;2563;52.242;7.956;2022-09-03T23:09:43;7.70;;;3.30;;
5121;SDS011;2563;52.242;7.956;2022-09-03T23:12:19;14.03;;;3.20;;
5121;SDS011;2563;52.242;7.956;2022-09-03T23:14:51;4.33;;;3.47;;
5121;SDS011;2563;52.242;7.956;2022-09-03T23:17:32;7.57;;;3.40;;
5121;SDS011;2563;52.242;7.956;2022-09-03T23:20:06;4.10;;;3.23;;
5121;SDS011;2563;52.242;7.956;2022-09-03T23:22:42;7.07;;;3.43;;
5121;SDS011;2563;52.242;7.956;2022-09-03T23:25:17;5.10;;;3.00;;